Ana Sayfa
METAR-TAF:

METAR-TAF

Havaalanları :

Mackinac Island Airport

Mackinac Island, Michigan, Amerika Birleşik Devletleri

Enlem: 45-51-54N, Boylam: 084-38-14W, yükseklik: 226 m

Güncel hava durumu gözlemi

Rapor saat 04:15 UTC de 25 dakika önce yapıldı.
Rüzgar batı/kuzeybatıdan 5 kt
Sıcaklık 16°C
Nem 63%
Basınç 1017 hPa
Görüş mesafesi: 16.1 km
Açık gökyüzü

METAR: KMCD 230415Z AUTO 30005KT 10SM CLR 16/09 A3002 RMK AO2 T01550091

Saat: 00:40 (04:40 UTC)


TAF: eksik

4.000'den fazla havaalanı için hava durumu gözlemleri ve tahminleri (METAR ve TAF raporları).

Kullanılabilir istasyonlar harita üzerinde sarı ve kırmızı noktalarla gösterilir.

İstasyonun adını görmek için fareyi noktanın üzerinde gezdirin.

Sonrasında hava gözlem ve tahminlerini görmek için tıklayın.

Haritayı değiştirmek için: yaklaştırmak için siyah artı işaretli yeşil düğmeye ve uzaklaştırmak için de eksi işaretli düğmeye hızla tıklayın; bitişik haritalar için yeşil okları kullanın.


METAR-TAF: